createdAt,value
2019-01-08T00:04:06.383Z,78.50
2019-01-08T00:08:24.703Z,78.50
2019-01-08T00:12:43.459Z,78.70
2019-01-08T00:17:02.133Z,78.80
2019-01-08T00:21:20.326Z,78.90
2019-01-08T00:25:39.116Z,79.20
2019-01-08T00:29:57.263Z,79.20
2019-01-08T00:34:15.669Z,79.00
2019-01-08T00:38:33.866Z,79.20
2019-01-08T00:42:52.014Z,79.00
2019-01-08T00:47:10.539Z,79.20
2019-01-08T00:51:29.072Z,79.00
2019-01-08T00:55:47.657Z,79.30
2019-01-08T01:00:06.530Z,79.30
2019-01-08T01:04:25.511Z,79.40
2019-01-08T01:08:43.940Z,79.30
2019-01-08T01:13:02.398Z,79.30
2019-01-08T01:17:20.901Z,79.40
2019-01-08T01:21:39.175Z,78.90
2019-01-08T01:25:57.610Z,79.20
2019-01-08T01:30:15.731Z,79.30
2019-01-08T01:34:33.879Z,79.30
2019-01-08T01:38:52.393Z,79.00
2019-01-08T01:43:10.501Z,79.20
2019-01-08T01:47:28.691Z,79.30
2019-01-08T01:51:47.232Z,79.30
2019-01-08T01:56:05.695Z,79.10
2019-01-08T02:00:23.886Z,79.40
2019-01-08T02:04:42.303Z,79.10
2019-01-08T02:09:00.476Z,79.40
2019-01-08T02:13:18.823Z,79.30
2019-01-08T02:17:36.848Z,80.20
2019-01-08T02:21:55.538Z,79.50
2019-01-08T02:26:15.460Z,79.80
2019-01-08T02:30:33.430Z,79.90
2019-01-08T02:34:51.554Z,80.00
2019-01-08T02:39:09.876Z,79.90
2019-01-08T02:43:28.013Z,79.50
2019-01-08T02:47:46.196Z,79.00
2019-01-08T02:52:04.639Z,79.00
2019-01-08T02:56:23.111Z,79.10
2019-01-08T03:00:41.352Z,79.30
2019-01-08T03:04:59.813Z,79.50
2019-01-08T03:09:18.093Z,79.80
2019-01-08T03:13:36.631Z,79.40
2019-01-08T03:17:55.010Z,79.50
2019-01-08T03:22:13.081Z,79.30
2019-01-08T03:26:31.259Z,79.40
2019-01-08T03:30:49.375Z,79.30
2019-01-08T03:35:07.575Z,79.00
2019-01-08T03:39:25.789Z,79.60
2019-01-08T03:43:44.328Z,79.30
2019-01-08T03:48:02.613Z,79.60
2019-01-08T03:52:20.681Z,79.70
2019-01-08T03:56:39.096Z,79.50
2019-01-08T04:00:57.505Z,80.00
2019-01-08T04:05:15.646Z,79.50
2019-01-08T04:09:33.877Z,79.60
2019-01-08T04:13:51.856Z,79.60
2019-01-08T04:18:11.672Z,79.40
2019-01-08T04:22:31.360Z,79.50
2019-01-08T04:26:49.615Z,79.60
2019-01-08T04:31:07.907Z,79.40
2019-01-08T04:35:27.891Z,79.80
2019-01-08T04:39:47.751Z,79.50
2019-01-08T04:44:05.953Z,79.40
2019-01-08T04:48:26.238Z,79.70
2019-01-08T04:52:44.696Z,79.90
2019-01-08T04:57:02.995Z,79.90
2019-01-08T05:01:21.625Z,80.00
2019-01-08T05:05:40.109Z,80.00
2019-01-08T05:09:59.241Z,80.00
2019-01-08T05:14:17.721Z,79.50
2019-01-08T05:18:35.917Z,79.60
2019-01-08T05:22:56.341Z,79.50
2019-01-08T05:27:14.424Z,79.10
2019-01-08T05:31:32.916Z,79.30
2019-01-08T05:35:53.727Z,79.80
2019-01-08T05:40:12.756Z,79.30
2019-01-08T05:44:31.226Z,79.40
2019-01-08T05:48:49.563Z,79.70
2019-01-08T05:53:11.633Z,79.70
2019-01-08T05:57:29.890Z,79.40
2019-01-08T06:01:48.363Z,79.50
2019-01-08T06:06:06.424Z,79.30
2019-01-08T06:10:24.565Z,79.40
2019-01-08T06:14:42.959Z,79.10
2019-01-08T06:19:02.400Z,78.70
2019-01-08T06:23:20.492Z,79.10
2019-01-08T06:27:38.848Z,79.20
2019-01-08T06:31:58.081Z,79.60
2019-01-08T06:36:16.161Z,79.20
2019-01-08T06:40:34.427Z,78.90
2019-01-08T06:44:52.575Z,79.00
2019-01-08T06:49:10.623Z,79.10
2019-01-08T06:53:28.790Z,79.30
2019-01-08T06:57:47.416Z,78.90
2019-01-08T07:02:05.775Z,79.30
2019-01-08T07:06:24.647Z,79.40
2019-01-08T07:10:42.778Z,79.40
2019-01-08T07:15:02.358Z,79.80
2019-01-08T07:19:20.896Z,80.20
2019-01-08T07:23:39.068Z,79.80
2019-01-08T07:27:57.324Z,79.80
2019-01-08T07:32:15.648Z,79.90
2019-01-08T07:36:34.702Z,79.70
2019-01-08T07:40:53.124Z,79.90
2019-01-08T07:45:11.331Z,80.20
2019-01-08T07:49:29.754Z,80.30
2019-01-08T07:53:47.966Z,80.30
2019-01-08T07:58:06.683Z,80.20
2019-01-08T08:02:24.917Z,79.80
2019-01-08T08:06:43.056Z,80.20
2019-01-08T08:11:01.138Z,80.40
2019-01-08T08:15:19.918Z,80.40
2019-01-08T08:19:38.031Z,80.80
2019-01-08T08:23:56.413Z,80.40
2019-01-08T08:28:14.445Z,80.60
2019-01-08T08:32:32.418Z,81.20
2019-01-08T08:36:50.416Z,80.30
2019-01-08T08:41:08.645Z,80.60
2019-01-08T08:45:27.163Z,80.30
2019-01-08T08:49:45.541Z,81.00
2019-01-08T08:54:03.749Z,81.00
2019-01-08T08:58:21.776Z,80.90
2019-01-08T09:02:39.800Z,81.10
2019-01-08T09:06:57.732Z,81.00
2019-01-08T09:11:16.046Z,81.20
2019-01-08T09:15:33.967Z,81.30
2019-01-08T09:19:52.215Z,81.40
2019-01-08T09:24:10.203Z,80.50
2019-01-08T09:28:28.154Z,80.00
2019-01-08T09:32:46.123Z,79.80
2019-01-08T09:37:04.215Z,79.50
2019-01-08T09:41:22.562Z,79.40
2019-01-08T09:45:40.586Z,80.20
2019-01-08T09:49:59.316Z,80.30
2019-01-08T09:54:17.322Z,80.00
2019-01-08T09:58:35.307Z,79.80
2019-01-08T10:02:53.302Z,79.90
2019-01-08T10:07:11.300Z,78.70
2019-01-08T10:11:30.592Z,79.50
2019-01-08T10:15:50.148Z,79.20
2019-01-08T10:20:10.130Z,80.40
2019-01-08T10:24:29.377Z,79.00
2019-01-08T10:28:49.514Z,78.90
2019-01-08T10:33:09.106Z,78.90
2019-01-08T10:37:29.091Z,78.90
2019-01-08T10:41:49.307Z,79.50
2019-01-08T10:46:09.102Z,80.50
2019-01-08T10:50:28.430Z,81.40
2019-01-08T10:54:48.364Z,81.10
2019-01-08T10:59:07.966Z,82.50
2019-01-08T11:03:27.279Z,82.50
2019-01-08T11:07:46.556Z,80.50
2019-01-08T11:12:05.847Z,81.30
2019-01-08T11:16:25.715Z,81.60
2019-01-08T11:20:44.978Z,76.80
2019-01-08T11:25:04.555Z,74.20
2019-01-08T11:29:24.418Z,74.90
2019-01-08T11:33:44.041Z,76.50
2019-01-08T11:38:03.570Z,73.50
2019-01-08T11:42:22.877Z,73.20
2019-01-08T11:46:42.499Z,74.50
2019-01-08T11:51:02.076Z,75.20
2019-01-08T11:55:21.654Z,75.30
2019-01-08T11:59:41.235Z,73.10
2019-01-08T12:04:00.576Z,74.00
2019-01-08T12:08:20.215Z,72.90
2019-01-08T12:12:39.986Z,70.60
2019-01-08T12:17:00.089Z,71.70
2019-01-08T12:21:19.693Z,71.20
2019-01-08T12:25:38.973Z,72.10
2019-01-08T12:29:58.224Z,70.30
2019-01-08T12:34:17.573Z,70.90
2019-01-08T12:38:36.766Z,70.30
2019-01-08T12:42:56.345Z,69.60
2019-01-08T12:47:16.292Z,69.50
2019-01-08T12:51:35.872Z,70.00
2019-01-08T12:55:55.472Z,67.10
2019-01-08T13:00:17.097Z,69.20
2019-01-08T13:04:36.392Z,70.80
2019-01-08T13:08:55.667Z,69.10
2019-01-08T13:13:15.239Z,67.90
2019-01-08T13:17:34.430Z,69.70
2019-01-08T13:21:54.200Z,67.30
2019-01-08T13:26:13.470Z,68.80
2019-01-08T13:30:33.108Z,68.10
2019-01-08T13:34:52.874Z,68.60
2019-01-08T13:39:12.217Z,67.10
2019-01-08T13:43:31.530Z,67.30
2019-01-08T13:47:51.139Z,68.60
2019-01-08T13:52:10.578Z,69.60
2019-01-08T13:56:29.965Z,69.90
2019-01-08T14:00:49.192Z,69.60
2019-01-08T14:05:09.065Z,70.20
2019-01-08T14:09:28.796Z,70.60
2019-01-08T14:13:48.821Z,71.20
2019-01-08T14:18:08.488Z,71.70
2019-01-08T14:22:28.418Z,71.60
2019-01-08T14:26:47.746Z,71.40
2019-01-08T14:31:07.283Z,71.80
2019-01-08T14:35:26.582Z,72.00
2019-01-08T14:39:45.322Z,71.50
2019-01-08T14:44:04.924Z,71.60
2019-01-08T14:48:24.509Z,70.90
2019-01-08T14:52:44.099Z,71.90
2019-01-08T14:57:03.423Z,71.50
2019-01-08T15:01:22.925Z,71.20
2019-01-08T15:05:42.207Z,72.70
2019-01-08T15:10:03.567Z,72.40
2019-01-08T15:14:22.492Z,72.00
2019-01-08T15:18:41.801Z,71.30
2019-01-08T15:23:01.432Z,72.30
2019-01-08T15:27:20.929Z,72.20
2019-01-08T15:31:40.199Z,71.80
2019-01-08T15:35:59.442Z,72.10
2019-01-08T15:40:18.924Z,71.60
2019-01-08T15:44:38.943Z,72.00
2019-01-08T15:48:58.204Z,72.30
2019-01-08T15:53:17.664Z,72.50
2019-01-08T15:57:36.973Z,72.30
2019-01-08T16:01:56.322Z,72.50
2019-01-08T16:06:15.935Z,72.60
2019-01-08T16:10:35.219Z,72.70
2019-01-08T16:14:54.528Z,72.60
2019-01-08T16:19:14.283Z,72.60
2019-01-08T16:23:33.598Z,73.00
2019-01-08T16:27:53.852Z,73.30
2019-01-08T16:32:13.248Z,72.50
2019-01-08T16:36:32.500Z,73.20
2019-01-08T16:40:51.779Z,72.60
2019-01-08T16:45:11.064Z,72.30
2019-01-08T16:49:30.425Z,72.70
2019-01-08T16:53:49.757Z,71.80
2019-01-08T16:58:09.363Z,72.90
2019-01-08T17:02:30.566Z,72.50
2019-01-08T17:06:50.046Z,72.10
2019-01-08T17:11:09.649Z,71.30
2019-01-08T17:15:28.895Z,71.40
2019-01-08T17:19:48.537Z,71.30
2019-01-08T17:24:07.821Z,71.90
2019-01-08T17:28:27.087Z,72.90
2019-01-08T17:32:46.750Z,72.50
2019-01-08T17:37:06.093Z,72.40
2019-01-08T17:41:25.724Z,72.60
2019-01-08T17:45:45.022Z,71.80
2019-01-08T17:50:04.322Z,71.70
2019-01-08T17:54:25.234Z,72.50
2019-01-08T17:58:51.432Z,71.60
2019-01-08T18:03:10.785Z,71.80
2019-01-08T18:07:30.027Z,71.90
2019-01-08T18:11:49.242Z,71.90
2019-01-08T18:16:08.706Z,71.40
2019-01-08T18:20:28.347Z,71.10
2019-01-08T18:24:47.770Z,71.10
2019-01-08T18:29:07.113Z,70.70
2019-01-08T18:33:25.017Z,70.30
2019-01-08T18:37:44.332Z,70.30
2019-01-08T18:42:04.094Z,70.40
2019-01-08T18:46:23.667Z,70.30
2019-01-08T18:50:43.098Z,70.90
2019-01-08T18:55:02.434Z,70.70
2019-01-08T18:59:21.804Z,70.50
2019-01-08T19:03:41.544Z,69.50
2019-01-08T19:08:10.495Z,70.50
2019-01-08T19:12:30.732Z,70.80
2019-01-08T19:16:50.503Z,70.30
2019-01-08T19:21:11.227Z,70.00
2019-01-08T19:25:30.983Z,70.10
2019-01-08T19:29:50.319Z,70.20
2019-01-08T19:34:09.723Z,69.50
2019-01-08T19:38:29.090Z,70.30
2019-01-08T19:42:49.454Z,69.80
2019-01-08T19:47:09.194Z,69.40
2019-01-08T19:51:29.602Z,69.80
2019-01-08T19:55:49.150Z,68.80
2019-01-08T20:00:11.523Z,69.00
2019-01-08T20:04:31.277Z,69.90
2019-01-08T20:08:50.551Z,69.40
2019-01-08T20:13:09.861Z,68.50
2019-01-08T20:17:31.016Z,69.20
2019-01-08T20:21:50.948Z,69.40
2019-01-08T20:26:10.708Z,68.10
2019-01-08T20:30:30.397Z,69.20
2019-01-08T20:34:49.977Z,68.40
2019-01-08T20:39:13.675Z,68.30
2019-01-08T20:43:32.949Z,68.20
2019-01-08T20:47:52.642Z,68.50
2019-01-08T20:52:12.218Z,68.00
2019-01-08T20:56:31.699Z,68.30
2019-01-08T21:00:51.279Z,67.60
2019-01-08T21:05:10.974Z,67.00
2019-01-08T21:09:30.879Z,68.10
2019-01-08T21:13:50.191Z,67.80
2019-01-08T21:18:09.369Z,67.40
2019-01-08T21:22:29.220Z,66.30
2019-01-08T21:26:48.663Z,66.20
2019-01-08T21:31:07.943Z,65.80
2019-01-08T21:35:27.577Z,65.70
2019-01-08T21:39:47.160Z,66.20
2019-01-08T21:44:06.852Z,66.00
2019-01-08T21:48:26.334Z,65.90
2019-01-08T21:52:46.434Z,66.10
2019-01-08T21:57:05.731Z,66.50
2019-01-08T22:01:26.323Z,66.40
2019-01-08T22:05:46.719Z,66.40
2019-01-08T22:10:06.412Z,66.40
2019-01-08T22:14:25.995Z,66.20
2019-01-08T22:18:45.307Z,65.80
2019-01-08T22:23:04.831Z,66.10
2019-01-08T22:27:24.199Z,65.80
2019-01-08T22:31:43.519Z,65.40
2019-01-08T22:36:03.165Z,66.20
2019-01-08T22:40:23.017Z,65.90
2019-01-08T22:44:42.326Z,65.90
2019-01-08T22:49:02.174Z,66.00
2019-01-08T22:53:21.420Z,66.40
2019-01-08T22:57:41.158Z,65.20
2019-01-08T23:02:01.212Z,66.00
2019-01-08T23:06:20.466Z,65.90
2019-01-08T23:10:41.443Z,65.20
2019-01-08T23:15:00.728Z,65.70
2019-01-08T23:19:20.084Z,65.00
2019-01-08T23:23:39.689Z,65.90
2019-01-08T23:27:59.498Z,65.80
2019-01-08T23:32:18.772Z,64.60
2019-01-08T23:36:37.961Z,65.40
2019-01-08T23:40:57.310Z,65.70
2019-01-08T23:45:16.917Z,65.90
2019-01-08T23:49:36.171Z,65.50
2019-01-08T23:53:56.607Z,65.10
2019-01-08T23:58:16.282Z,65.70
